Pagrindinis puslapis
METAR-TAF:

METAR-TAF

Oro uostai :

Kaljaris, Italija

platuma: 39-15N, ilguma: 009-04E, Aukštis: 4 m

Dabartinis oras

Ataskaita buvo paskelbta 39 minutes, ne 00:50 UTC
Vėjas 5 kt iš Vakarų/Šiaurės Vakarų, svyruoja nuo Pietvakarių ir Šiaurės/Šiaurės Vakarų
Temperatūra 25°C
Drėgmė 69%
Slėgis 1011 hPa
Matomumas 10 km arba daugiau
nėra debesų žemiau 1500 m ir nėra kamuolinių lietaus debesų

METAR: LIEE 250050Z 29005KT 230V340 CAVOK 25/19 Q1011

Laikas: 03:29 (01:29 UTC)

Prognozė

Ataskaita buvo paskelbta 2 valandos ir 29 minutes, ne 23:00 UTC
Prognozė galioja nuo 25 metu 00 UTC su 25 metu 24 UTC
Vėjas 12 kt iš Vakarų/Pietvakarių
Matomumas 10 km arba daugiau
Išsisklaidę debesys ne aukštis 2500 ft
Laikinai
nuo 25 metu 06 UTC su 25 metu 09 UTC
Matomumas: 4000 m
perkūnija, lietus
Tapsmas
nuo 25 metu 08 UTC su 25 metu 10 UTC
Vėjas 20 kt iš Vakarų su gūsio iki 30 kt

TAF: LIEE 242300Z 2500/2524 24012KT 9999 SCT025 TEMPO 2506/2509 4000 TSRA BECMG 2508/2510 27020G30KT

Orai ataskaitas ir orų prognozės (METAR, TAF).

turimą stotys yra geltonos ir raudonos taškus žemėlapyje.

Perkelti pele per norėdami pamatyti stoties vardą.

Tada spustelėkite, norėdami matyti oro stebėjimo ir prognozės.

Norėdami pakeisti žemėlapį: spustelėkite ant žalios mygtukų su juodo kryžiaus žemyn,; žalią mygtuką su brūkšneliu, jei norite nutolinti; arba žalių rodyklių gretimoms žemėlapius.


METAR-TAF: